Time;durP1;ratioP1;P1;durP2;ratioP2;P2;SDS_P1;SDS_P2;PMS_P1;PMS_P2;Temp;Humidity;BMP_temperature;BMP_pressure;BME280_temperature;BME280_humidity;BME280_pressure;Samples;Min_cycle;Max_cycle;Signal;HPM_P1;HPM_P2
2022/02/26 00:01:06;;;;;;;33.90;6.60;;;;;;;3.13;90.77;103169.91;5031845;28;20044;-46
2022/02/26 00:03:31;;;;;;;34.13;7.85;;;;;;;3.13;90.55;103177.03;5032652;28;20109;-47
2022/02/26 00:05:57;;;;;;;29.73;6.95;;;;;;;3.14;90.71;103179.63;5038321;28;20046;-49
2022/02/26 00:08:22;;;;;;;41.08;7.47;;;;;;;3.14;90.97;103182.28;5044408;28;20423;-48
2022/02/26 00:10:47;;;;;;;38.80;8.52;;;;;;;3.14;91.43;103178.78;5035530;28;20037;-47
2022/02/26 00:13:13;;;;;;;32.05;7.65;;;;;;;3.08;90.62;103172.81;5044807;28;20030;-48
2022/02/26 00:15:38;;;;;;;36.03;7.30;;;;;;;3.04;90.58;103181.88;5031567;28;20038;-47
2022/02/26 00:18:03;;;;;;;24.92;6.80;;;;;;;3.04;90.06;103191.66;5044338;28;20051;-50
2022/02/26 00:20:29;;;;;;;30.52;7.43;;;;;;;3.01;90.91;103198.00;5042665;28;20477;-50
2022/02/26 00:22:54;;;;;;;45.30;9.00;;;;;;;2.96;90.39;103188.50;5047404;28;20025;-47
2022/02/26 00:25:19;;;;;;;36.80;8.18;;;;;;;2.93;89.86;103178.03;5043670;28;20520;-47
2022/02/26 00:27:45;;;;;;;43.97;7.25;;;;;;;2.89;89.64;103181.75;5045289;28;20378;-49
2022/02/26 00:30:11;;;;;;;32.17;7.72;;;;;;;2.85;89.96;103195.22;5037310;28;20037;-48
2022/02/26 00:32:36;;;;;;;29.38;6.32;;;;;;;2.80;90.85;103197.22;5049414;28;20036;-48
2022/02/26 00:35:02;;;;;;;34.13;6.95;;;;;;;2.82;90.90;103197.16;5054435;28;20032;-49
2022/02/26 00:37:27;;;;;;;33.83;7.18;;;;;;;2.79;90.60;103191.97;5047633;28;20032;-47
2022/02/26 00:39:52;;;;;;;30.25;6.60;;;;;;;2.76;90.84;103194.78;5050271;28;20025;-47
2022/02/26 00:42:17;;;;;;;32.00;5.88;;;;;;;2.71;91.04;103200.31;5035272;28;20025;-47
2022/02/26 00:44:43;;;;;;;34.83;6.80;;;;;;;2.66;91.27;103191.72;5042589;28;20471;-45
2022/02/26 00:47:08;;;;;;;34.72;5.90;;;;;;;2.65;91.64;103195.28;5055013;28;20036;-49
2022/02/26 00:49:50;;;;;;;33.97;6.55;;;;;;;2.62;91.00;103200.75;5042946;28;20113;-45
2022/02/26 00:52:18;;;;;;;34.05;6.03;;;;;;;2.56;91.19;103198.41;5050632;28;20090;-45
2022/02/26 00:54:44;;;;;;;29.15;4.78;;;;;;;2.54;91.45;103197.59;5039426;28;20042;-48
2022/02/26 00:57:10;;;;;;;27.45;5.68;;;;;;;2.51;91.51;103203.91;5039120;28;20028;-46
2022/02/26 00:59:35;;;;;;;32.05;5.05;;;;;;;2.46;91.73;103191.78;5049593;28;20032;-47
2022/02/26 01:02:00;;;;;;;21.35;4.90;;;;;;;2.37;90.98;103191.28;5053648;28;20358;-47
2022/02/26 01:04:26;;;;;;;36.92;5.68;;;;;;;2.30;90.55;103179.19;5038176;28;20036;-47
2022/02/26 01:06:52;;;;;;;26.15;5.05;;;;;;;2.26;91.54;103182.91;5034960;28;20079;-46
2022/02/26 01:09:17;;;;;;;37.25;4.88;;;;;;;2.26;91.69;103192.69;5051333;28;20033;-47
2022/02/26 01:11:43;;;;;;;23.08;4.47;;;;;;;2.25;91.56;103186.53;5054274;28;20449;-50
2022/02/26 01:14:09;;;;;;;23.10;4.38;;;;;;;2.17;92.09;103183.34;5054007;28;20086;-46
2022/02/26 01:16:34;;;;;;;30.10;4.22;;;;;;;2.13;91.07;103181.75;5054288;28;20025;-47
2022/02/26 01:19:00;;;;;;;25.00;4.20;;;;;;;2.03;90.76;103180.44;5065677;28;20032;-47
2022/02/26 01:21:25;;;;;;;26.05;4.75;;;;;;;1.98;91.30;103172.69;5055422;28;20361;-46
2022/02/26 01:23:50;;;;;;;22.02;4.30;;;;;;;1.96;91.60;103179.88;5052063;28;20025;-46
2022/02/26 01:26:17;;;;;;;24.60;4.05;;;;;;;1.93;92.23;103182.66;5034635;28;20057;-47
2022/02/26 01:28:43;;;;;;;23.33;4.13;;;;;;;1.88;91.55;103171.38;5034602;28;20034;-50
2022/02/26 01:31:08;;;;;;;26.73;4.78;;;;;;;1.86;92.22;103183.84;5034783;28;20052;-46
2022/02/26 01:33:33;;;;;;;30.45;4.63;;;;;;;1.85;92.03;103187.47;5034341;28;20048;-47
2022/02/26 01:36:00;;;;;;;21.98;3.67;;;;;;;1.85;92.56;103188.31;5034295;28;20025;-47
2022/02/26 01:38:25;;;;;;;19.60;3.30;;;;;;;1.82;92.69;103198.19;5034388;28;20076;-48
2022/02/26 01:40:50;;;;;;;24.90;4.45;;;;;;;1.75;92.21;103208.22;5034472;28;20025;-48
2022/02/26 01:43:16;;;;;;;21.73;4.32;;;;;;;1.81;92.05;103210.59;5034078;28;20021;-47
2022/02/26 01:45:41;;;;;;;34.17;5.03;;;;;;;1.89;92.92;103211.13;5035389;28;20040;-47
2022/02/26 01:48:07;;;;;;;25.30;4.10;;;;;;;1.96;93.12;103223.22;5054107;28;20031;-48
2022/02/26 01:50:32;;;;;;;18.65;4.32;;;;;;;1.93;93.44;103218.03;5042614;28;20112;-48
2022/02/26 01:53:00;;;;;;;22.30;4.05;;;;;;;1.96;93.71;103217.06;5034411;28;20485;-49
2022/02/26 01:55:26;;;;;;;21.70;4.10;;;;;;;1.96;93.54;103212.59;5034023;28;20041;-50
2022/02/26 01:57:52;;;;;;;31.75;5.07;;;;;;;1.87;93.33;103204.16;5037275;28;20040;-49
2022/02/26 02:00:17;;;;;;;30.35;4.13;;;;;;;1.80;93.20;103200.94;5047770;28;20350;-49
2022/02/26 02:02:43;;;;;;;22.60;4.35;;;;;;;1.78;93.09;103197.47;5045903;28;20037;-48
2022/02/26 02:05:08;;;;;;;23.40;3.50;;;;;;;1.74;92.93;103191.44;5051852;28;20035;-47
2022/02/26 02:07:34;;;;;;;24.85;3.83;;;;;;;1.73;92.99;103195.00;5033714;28;20033;-48
2022/02/26 02:09:59;;;;;;;28.02;4.05;;;;;;;1.72;93.01;103195.09;5042398;28;20090;-48
2022/02/26 02:12:25;;;;;;;25.80;3.83;;;;;;;1.74;92.93;103196.75;5036161;28;20116;-48
2022/02/26 02:14:50;;;;;;;24.38;3.97;;;;;;;1.78;93.19;103199.25;5038979;28;20070;-47
2022/02/26 02:17:16;;;;;;;24.88;4.18;;;;;;;1.78;93.77;103200.13;5048763;28;20029;-47
2022/02/26 02:19:41;;;;;;;34.45;5.07;;;;;;;1.83;93.40;103199.94;5043268;28;20034;-49
2022/02/26 02:22:07;;;;;;;22.48;4.28;;;;;;;1.83;94.45;103192.81;5038386;28;20049;-50
2022/02/26 02:24:33;;;;;;;28.52;4.55;;;;;;;1.79;93.76;103204.53;5047779;28;20029;-49
2022/02/26 02:27:02;;;;;;;22.27;4.40;;;;;;;1.77;93.48;103200.22;5053342;28;20473;-47
2022/02/26 02:29:28;;;;;;;23.00;4.13;;;;;;;1.80;93.31;103211.53;5053351;28;20071;-47
2022/02/26 02:31:54;;;;;;;30.73;4.40;;;;;;;1.79;93.44;103219.56;5051788;28;20037;-49
2022/02/26 02:34:19;;;;;;;32.22;3.95;;;;;;;1.75;93.06;103218.84;5049875;28;20472;-48
2022/02/26 02:36:46;;;;;;;29.85;4.35;;;;;;;1.69;92.52;103216.47;5033362;28;20029;-51
2022/02/26 02:39:12;;;;;;;21.95;4.05;;;;;;;1.62;92.07;103215.00;5038731;28;20487;-47
2022/02/26 02:41:38;;;;;;;25.10;3.53;;;;;;;1.62;92.47;103223.81;5063305;28;20059;-47
2022/02/26 02:44:04;;;;;;;21.73;4.55;;;;;;;1.61;92.56;103231.84;5033157;28;20049;-49
2022/02/26 02:46:29;;;;;;;23.25;4.32;;;;;;;1.63;92.76;103236.16;5033097;28;20037;-49
2022/02/26 02:48:55;;;;;;;27.70;4.13;;;;;;;1.69;93.05;103235.06;5042019;28;20025;-45
2022/02/26 02:51:21;;;;;;;28.80;3.92;;;;;;;1.71;93.04;103233.16;5051289;28;20035;-45
2022/02/26 02:53:46;;;;;;;23.95;5.78;;;;;;;1.71;93.37;103238.47;5052918;28;20116;-48
2022/02/26 02:56:12;;;;;;;23.40;3.80;;;;;;;1.62;93.22;103228.25;5051841;28;20376;-49
2022/02/26 02:58:37;;;;;;;25.67;4.03;;;;;;;1.61;93.43;103230.06;5052839;28;20094;-48
2022/02/26 03:01:03;;;;;;;30.40;5.95;;;;;;;1.82;93.92;103230.94;5050622;28;20435;-47
2022/02/26 03:03:28;;;;;;;21.80;3.90;;;;;;;1.85;94.46;103224.63;5042856;28;20526;-46
2022/02/26 03:05:55;;;;;;;32.35;5.32;;;;;;;1.71;93.79;103227.84;5032810;28;20021;-49
2022/02/26 03:08:23;;;;;;;27.65;4.28;;;;;;;1.64;93.37;103242.34;5045750;28;20507;-48
2022/02/26 03:10:52;;;;;;;22.35;4.45;;;;;;;1.61;93.47;103238.03;5033386;28;20469;-50
2022/02/26 03:13:20;;;;;;;28.90;4.20;;;;;;;1.57;93.83;103236.41;5041988;28;20357;-48
2022/02/26 03:15:46;;;;;;;26.58;4.57;;;;;;;1.57;93.34;103243.53;5053209;28;20036;-47
2022/02/26 03:18:11;;;;;;;25.20;3.88;;;;;;;1.56;94.42;103244.47;5052581;28;20033;-51
2022/02/26 03:20:36;;;;;;;17.92;3.53;;;;;;;1.48;93.65;103237.66;5053128;28;20116;-48
2022/02/26 03:23:02;;;;;;;28.67;4.72;;;;;;;1.44;94.07;103248.47;5052540;28;20449;-47
2022/02/26 03:25:27;;;;;;;35.70;4.05;;;;;;;1.38;93.52;103246.94;5047567;28;20087;-49
2022/02/26 03:27:52;;;;;;;28.77;4.43;;;;;;;1.39;93.60;103248.66;5051473;28;20032;-48
2022/02/26 03:30:18;;;;;;;18.33;3.33;;;;;;;1.39;94.10;103253.97;5046112;28;20384;-47
2022/02/26 03:32:43;;;;;;;13.35;3.85;;;;;;;1.34;93.86;103255.06;5036723;28;20048;-49
2022/02/26 03:35:09;;;;;;;26.80;4.43;;;;;;;1.29;93.42;103253.50;5048067;28;20041;-47
2022/02/26 03:37:35;;;;;;;27.45;4.32;;;;;;;1.27;93.51;103265.09;5052644;28;20475;-49
2022/02/26 03:40:01;;;;;;;18.92;4.45;;;;;;;1.24;94.00;103266.06;5051634;28;20123;-48
2022/02/26 03:42:26;;;;;;;31.52;4.47;;;;;;;1.22;93.80;103267.06;5052765;28;20041;-47
2022/02/26 03:44:52;;;;;;;29.00;3.55;;;;;;;1.18;93.45;103278.72;5042734;28;20033;-47
2022/02/26 03:47:18;;;;;;;25.65;3.85;;;;;;;1.21;93.58;103281.22;5032617;28;20464;-47
2022/02/26 03:49:48;;;;;;;23.55;3.70;;;;;;;1.15;93.70;103282.34;5033103;28;20071;-48
2022/02/26 03:52:13;;;;;;;30.58;4.88;;;;;;;1.15;93.35;103281.47;5032620;28;20032;-49
2022/02/26 03:54:39;;;;;;;29.63;3.85;;;;;;;1.12;93.52;103273.66;5036668;28;20115;-46
2022/02/26 03:57:04;;;;;;;18.83;3.72;;;;;;;1.10;93.63;103279.00;5033401;28;20041;-47
2022/02/26 03:59:29;;;;;;;22.63;4.03;;;;;;;1.04;93.59;103274.81;5032517;28;20034;-46
2022/02/26 04:01:55;;;;;;;16.98;3.65;;;;;;;1.03;93.35;103275.75;5032490;28;20025;-48
2022/02/26 04:04:20;;;;;;;36.75;4.35;;;;;;;1.02;93.08;103276.66;5032350;28;20021;-48
2022/02/26 04:06:46;;;;;;;21.92;4.15;;;;;;;1.01;93.58;103280.25;5032334;28;20156;-47
2022/02/26 04:09:11;;;;;;;23.98;3.92;;;;;;;0.99;94.07;103278.56;5041627;28;20131;-48
2022/02/26 04:11:37;;;;;;;21.38;4.00;;;;;;;0.94;93.30;103276.09;5051511;28;20033;-48
2022/02/26 04:14:03;;;;;;;22.15;3.85;;;;;;;0.93;93.40;103279.69;5052319;28;20087;-51
2022/02/26 04:16:28;;;;;;;25.77;4.60;;;;;;;0.94;93.46;103289.34;5049467;28;20037;-48
2022/02/26 04:18:53;;;;;;;23.92;4.32;;;;;;;0.91;93.49;103291.25;5032433;28;20026;-48
2022/02/26 04:21:19;;;;;;;21.60;3.90;;;;;;;0.91;93.63;103284.16;5032463;28;20049;-47
2022/02/26 04:23:44;;;;;;;23.77;4.72;;;;;;;0.90;93.96;103286.91;5032320;28;20048;-49
2022/02/26 04:26:10;;;;;;;25.38;3.75;;;;;;;0.89;94.00;103286.00;5039661;28;20025;-47
2022/02/26 04:28:35;;;;;;;29.60;4.32;;;;;;;0.88;93.49;103290.44;5049770;28;20021;-47
2022/02/26 04:31:01;;;;;;;29.15;3.45;;;;;;;0.83;93.75;103288.91;5032314;28;20384;-49
2022/02/26 04:33:29;;;;;;;15.45;3.30;;;;;;;0.84;93.84;103287.97;5033280;28;20022;-48
2022/02/26 04:35:55;;;;;;;25.77;3.80;;;;;;;0.84;93.90;103287.97;5047505;28;20025;-48
2022/02/26 04:38:20;;;;;;;24.35;3.70;;;;;;;0.82;93.95;103289.84;5039759;28;20380;-46
2022/02/26 04:40:45;;;;;;;17.75;3.53;;;;;;;0.81;93.55;103288.09;5052235;28;20040;-48
2022/02/26 04:43:11;;;;;;;23.88;4.00;;;;;;;0.87;93.87;103293.19;5043746;28;20025;-48
2022/02/26 04:45:36;;;;;;;20.90;4.57;;;;;;;0.91;93.96;103292.13;5045008;28;20041;-46
2022/02/26 04:48:02;;;;;;;20.85;3.80;;;;;;;0.90;94.31;103286.91;5045725;28;20025;-47
2022/02/26 04:50:27;;;;;;;29.98;4.00;;;;;;;0.88;94.11;103284.28;5050117;28;20025;-47
2022/02/26 04:52:53;;;;;;;25.10;3.90;;;;;;;0.91;94.17;103293.91;5040956;28;20032;-46
2022/02/26 04:55:18;;;;;;;11.20;3.55;;;;;;;0.87;93.72;103293.19;5050552;28;20524;-46
2022/02/26 04:57:44;;;;;;;22.55;4.05;;;;;;;0.86;93.55;103296.72;5049520;28;20037;-48
2022/02/26 05:00:10;;;;;;;22.27;3.25;;;;;;;0.86;93.53;103291.44;5052173;28;20044;-47
2022/02/26 05:02:36;;;;;;;26.48;5.22;;;;;;;0.84;93.45;103293.28;5050000;28;20056;-46
2022/02/26 05:05:02;;;;;;;20.17;3.63;;;;;;;0.83;93.49;103296.84;5036114;28;20079;-47
2022/02/26 05:07:28;;;;;;;28.42;4.25;;;;;;;0.83;93.82;103300.38;5042818;28;20147;-47
2022/02/26 05:09:53;;;;;;;23.17;4.32;;;;;;;0.83;93.99;103302.16;5045713;28;20497;-47
2022/02/26 05:12:18;;;;;;;19.98;3.88;;;;;;;0.79;94.00;103305.84;5051298;28;20056;-50
2022/02/26 05:14:44;;;;;;;38.30;4.82;;;;;;;0.77;93.40;103302.41;5051762;28;20063;-47
2022/02/26 05:17:09;;;;;;;17.23;3.63;;;;;;;0.77;93.42;103313.00;5039890;28;20417;-51
2022/02/26 05:19:35;;;;;;;26.08;3.85;;;;;;;0.74;93.16;103313.09;5045496;28;20044;-47
2022/02/26 05:22:00;;;;;;;20.00;4.05;;;;;;;0.72;93.17;103320.25;5039321;28;20029;-46
2022/02/26 05:24:25;;;;;;;23.48;4.43;;;;;;;0.66;93.08;103318.72;5035641;28;20481;-47
2022/02/26 05:26:51;;;;;;;30.20;5.28;;;;;;;0.64;93.36;103323.19;5048687;28;20369;-47
2022/02/26 05:29:16;;;;;;;22.38;4.57;;;;;;;0.69;93.89;103330.97;5037249;28;20060;-50
2022/02/26 05:31:41;;;;;;;31.33;4.90;;;;;;;0.67;93.95;103330.16;5038580;28;20038;-48
2022/02/26 05:34:08;;;;;;;29.33;4.43;;;;;;;0.68;93.75;103334.53;5052040;28;20063;-47
2022/02/26 05:36:33;;;;;;;13.55;3.97;;;;;;;0.63;93.64;103326.75;5039391;28;20025;-49
2022/02/26 05:38:59;;;;;;;22.45;4.07;;;;;;;0.56;93.17;103326.13;5042360;28;20120;-48
2022/02/26 05:41:24;;;;;;;16.42;3.58;;;;;;;0.54;93.18;103324.44;5052605;28;20349;-47
2022/02/26 05:43:49;;;;;;;14.43;4.00;;;;;;;0.54;93.62;103327.94;5051081;28;20483;-46
2022/02/26 05:46:15;;;;;;;22.35;4.60;;;;;;;0.59;93.79;103330.44;5052494;28;20112;-48
2022/02/26 05:48:40;;;;;;;19.48;4.85;;;;;;;0.61;94.02;103329.47;5048863;28;20029;-50
2022/02/26 05:51:06;;;;;;;17.35;4.80;;;;;;;0.56;93.97;103336.72;5056318;28;20096;-48
2022/02/26 05:53:32;;;;;;;21.58;4.35;;;;;;;0.57;93.80;103330.47;5054188;28;20031;-48
2022/02/26 05:55:57;;;;;;;24.00;4.65;;;;;;;0.58;94.08;103334.88;5050216;28;20125;-47
2022/02/26 05:58:23;;;;;;;15.25;3.55;;;;;;;0.56;94.00;103335.84;5046523;28;20132;-48
2022/02/26 06:00:51;;;;;;;24.60;4.30;;;;;;;0.56;93.76;103339.38;5054098;28;20025;-47
2022/02/26 06:03:16;;;;;;;;;;;;;;;0.54;93.60;103338.56;5051819;28;20037;-49
2022/02/26 06:05:42;;;;;;;17.85;4.25;;;;;;;0.56;93.67;103339.38;5034102;28;19995;-47
2022/02/26 06:08:07;;;;;;;25.88;5.00;;;;;;;0.56;93.88;103339.38;5046256;28;20449;-48
2022/02/26 06:10:33;;;;;;;21.23;5.88;;;;;;;0.57;94.13;103338.44;5047647;28;20029;-50
2022/02/26 06:12:58;;;;;;;20.42;4.95;;;;;;;0.53;94.39;103336.84;5041608;28;20052;-47
2022/02/26 06:15:24;;;;;;;25.65;4.60;;;;;;;0.49;94.22;103343.16;5038486;28;20389;-46
2022/02/26 06:17:49;;;;;;;21.20;5.13;;;;;;;0.46;93.93;103347.72;5040471;28;20036;-47
2022/02/26 06:20:15;;;;;;;33.08;6.18;;;;;;;0.47;94.30;103344.97;5047016;28;20093;-48
2022/02/26 06:22:41;;;;;;;26.27;4.90;;;;;;;0.49;94.20;103344.94;5045983;28;20040;-48
2022/02/26 06:25:07;;;;;;;20.42;5.43;;;;;;;0.48;94.44;103344.09;5041851;28;20120;-50
2022/02/26 06:27:40;;;;;;;29.27;5.55;;;;;;;0.45;94.85;103341.53;5046369;28;20037;-48
2022/02/26 06:30:08;;;;;;;30.05;5.18;;;;;;;0.48;94.46;103354.69;5033736;28;20072;-48
2022/02/26 06:32:33;;;;;;;;;;;;;;;0.46;94.16;103351.22;5031149;28;20067;-47
2022/02/26 06:34:58;;;;;;;19.35;4.65;;;;;;;0.51;94.47;103354.56;5039081;28;19935;-48
2022/02/26 06:37:24;;;;;;;22.83;5.22;;;;;;;0.53;94.64;103352.72;5036179;28;20037;-48
2022/02/26 06:39:50;;;;;;;21.90;5.32;;;;;;;0.55;94.80;103356.16;5056079;28;20422;-47
2022/02/26 06:42:15;;;;;;;20.60;4.57;;;;;;;0.55;94.13;103366.78;5054969;28;20020;-48
2022/02/26 06:44:40;;;;;;;25.20;5.50;;;;;;;0.60;94.77;103363.97;5056631;28;20559;-47
2022/02/26 06:47:06;;;;;;;27.60;5.53;;;;;;;0.65;94.62;103356.72;5050720;28;20029;-47
2022/02/26 06:49:31;;;;;;;17.05;4.60;;;;;;;0.71;94.60;103366.22;5038827;28;20512;-47
2022/02/26 06:51:57;;;;;;;18.92;4.47;;;;;;;0.74;94.75;103372.28;5049366;28;20119;-48
2022/02/26 06:54:22;;;;;;;25.75;5.15;;;;;;;0.83;94.47;103376.38;5051822;28;20029;-47
2022/02/26 06:56:48;;;;;;;23.55;5.45;;;;;;;0.97;94.27;103383.81;5062400;28;20071;-47
2022/02/26 06:59:14;;;;;;;20.45;5.25;;;;;;;1.24;94.71;103387.25;5045409;28;20021;-49
2022/02/26 07:01:40;;;;;;;21.65;5.80;;;;;;;1.40;93.71;103388.38;5043261;28;20096;-48
2022/02/26 07:04:06;;;;;;;26.50;5.45;;;;;;;1.50;93.43;103395.06;5047676;28;20063;-46
2022/02/26 07:06:31;;;;;;;20.67;5.63;;;;;;;1.69;92.68;103394.31;5046533;28;20029;-48
2022/02/26 07:08:56;;;;;;;17.25;5.63;;;;;;;1.92;91.79;103388.94;5048030;28;20032;-48
2022/02/26 07:11:22;;;;;;;23.55;5.25;;;;;;;2.21;90.92;103392.16;5047564;28;20029;-47
2022/02/26 07:13:47;;;;;;;17.27;4.57;;;;;;;2.51;89.94;103391.78;5031921;28;20024;-48
2022/02/26 07:16:13;;;;;;;25.50;5.18;;;;;;;2.90;89.48;103394.50;5057826;28;20025;-49
2022/02/26 07:18:38;;;;;;;20.95;5.20;;;;;;;3.30;88.10;103388.19;5031295;28;20152;-47
2022/02/26 07:21:04;;;;;;;20.27;4.60;;;;;;;3.55;86.00;103400.31;5032322;28;20033;-49
2022/02/26 07:23:29;;;;;;;23.00;5.00;;;;;;;3.80;83.46;103399.16;5031286;28;20034;-46
2022/02/26 07:25:54;;;;;;;13.52;4.47;;;;;;;3.96;81.61;103402.78;5031258;28;20078;-48
2022/02/26 07:28:20;;;;;;;20.77;5.65;;;;;;;4.07;81.03;103397.78;5030901;28;20030;-47
2022/02/26 07:30:46;;;;;;;26.08;4.95;;;;;;;4.28;80.91;103400.31;5031131;28;20487;-50
2022/02/26 07:33:11;;;;;;;17.48;4.78;;;;;;;4.37;80.64;103405.16;5048778;28;20037;-49
2022/02/26 07:35:37;;;;;;;26.73;7.10;;;;;;;4.34;80.05;103406.19;5050545;28;20530;-49
2022/02/26 07:38:04;;;;;;;15.43;5.07;;;;;;;4.29;79.97;103402.03;5049147;28;20048;-48
2022/02/26 07:40:29;;;;;;;21.58;5.03;;;;;;;4.19;81.49;103396.31;5048795;28;20536;-48
2022/02/26 07:42:55;;;;;;;16.33;5.13;;;;;;;4.22;82.55;103396.16;5050922;28;20040;-51
2022/02/26 07:45:20;;;;;;;23.55;5.82;;;;;;;4.68;83.93;103403.59;5050529;28;20040;-48
2022/02/26 07:47:47;;;;;;;20.27;5.75;;;;;;;5.23;81.51;103416.63;5052101;28;20053;-48
2022/02/26 07:50:12;;;;;;;18.25;5.18;;;;;;;5.53;80.44;103413.22;5050380;28;20036;-50
2022/02/26 07:52:37;;;;;;;20.08;5.50;;;;;;;5.68;78.86;103409.69;5033317;28;20033;-48
2022/02/26 07:55:05;;;;;;;28.25;5.90;;;;;;;6.01;79.13;103408.75;5037429;28;20109;-49
2022/02/26 07:57:30;;;;;;;23.67;6.75;;;;;;;6.14;77.25;103415.09;5040742;28;20480;-48
2022/02/26 07:59:56;;;;;;;23.90;6.57;;;;;;;6.73;76.91;103409.78;5048131;28;20037;-48
2022/02/26 08:02:21;;;;;;;27.33;7.05;;;;;;;7.15;73.92;103403.59;5040519;28;20037;-49
2022/02/26 08:04:47;;;;;;;26.25;6.30;;;;;;;7.70;72.63;103405.41;5032851;28;20036;-49
2022/02/26 08:07:13;;;;;;;22.23;6.50;;;;;;;8.61;72.45;103406.53;5052614;28;20025;-49
2022/02/26 08:09:39;;;;;;;26.02;7.13;;;;;;;9.65;67.13;103410.69;5035667;28;20152;-48
2022/02/26 08:12:04;;;;;;;21.27;6.97;;;;;;;9.74;65.10;103417.25;5038531;28;20430;-48
2022/02/26 08:14:30;;;;;;;27.88;8.95;;;;;;;9.81;64.18;103410.41;5051674;28;20041;-50
2022/02/26 08:16:55;;;;;;;22.17;7.38;;;;;;;10.64;60.13;103409.56;5052304;28;20026;-49
2022/02/26 08:19:20;;;;;;;22.00;7.50;;;;;;;9.80;61.65;103419.47;5049605;28;20025;-48
2022/02/26 08:21:46;;;;;;;21.92;7.60;;;;;;;9.76;63.06;103433.25;5047337;28;20033;-47
2022/02/26 08:24:12;;;;;;;24.20;7.95;;;;;;;10.08;63.22;103431.72;5031726;28;20386;-48
2022/02/26 08:26:38;;;;;;;25.98;7.45;;;;;;;10.33;62.31;103438.84;5033177;28;20306;-49
2022/02/26 08:29:04;;;;;;;24.00;8.05;;;;;;;10.39;60.93;103431.25;5049017;28;20029;-50
2022/02/26 08:31:30;;;;;;;27.77;8.40;;;;;;;11.24;60.41;103433.59;5040954;28;20033;-51
2022/02/26 08:33:55;;;;;;;24.20;8.35;;;;;;;11.52;58.10;103432.22;5047469;28;20040;-50
2022/02/26 08:36:21;;;;;;;25.70;8.77;;;;;;;11.30;58.05;103433.13;5043018;28;20029;-48
2022/02/26 08:38:48;;;;;;;25.45;8.80;;;;;;;11.41;57.77;103431.25;5031906;28;20033;-50
2022/02/26 08:41:14;;;;;;;28.33;9.47;;;;;;;11.00;59.17;103423.78;5045044;28;20029;-51
2022/02/26 08:43:39;;;;;;;17.73;8.63;;;;;;;12.81;53.75;103429.53;5050930;28;20492;-49
2022/02/26 08:46:05;;;;;;;21.65;8.85;;;;;;;13.11;52.35;103439.50;5051745;28;20036;-48
2022/02/26 08:48:30;;;;;;;29.38;9.45;;;;;;;12.12;53.96;103438.97;5051766;28;20110;-48
2022/02/26 08:50:55;;;;;;;21.45;8.45;;;;;;;11.92;54.87;103431.69;5051686;28;20116;-48
2022/02/26 08:53:21;;;;;;;23.38;9.07;;;;;;;11.80;54.75;103430.84;5042370;28;20119;-49
2022/02/26 08:55:46;;;;;;;24.05;9.32;;;;;;;11.64;56.25;103440.19;5055033;28;20115;-51
2022/02/26 08:58:11;;;;;;;29.00;10.80;;;;;;;10.90;57.75;103441.66;5035824;28;20034;-49
2022/02/26 09:00:37;;;;;;;25.45;9.50;;;;;;;10.92;58.62;103447.78;5045485;28;20037;-48
2022/02/26 09:03:03;;;;;;;20.27;8.80;;;;;;;12.01;57.57;103439.03;5054612;28;20037;-49
2022/02/26 09:05:28;;;;;;;20.20;9.15;;;;;;;13.21;52.91;103450.34;5046158;28;20484;-50
2022/02/26 09:07:53;;;;;;;28.80;10.27;;;;;;;13.60;50.62;103443.28;5035210;28;20022;-48
2022/02/26 09:10:19;;;;;;;25.48;10.30;;;;;;;12.82;52.00;103439.34;5052984;28;20071;-50
2022/02/26 09:12:44;;;;;;;26.45;10.77;;;;;;;12.52;53.43;103438.31;5044712;28;20025;-50
2022/02/26 09:15:10;;;;;;;21.30;9.48;;;;;;;12.64;53.90;103429.16;5047590;28;20504;-49
2022/02/26 09:17:36;;;;;;;26.80;10.25;;;;;;;13.53;50.96;103445.69;5050581;28;20025;-50
2022/02/26 09:20:01;;;;;;;23.15;8.98;;;;;;;13.57;50.85;103436.28;5034723;28;20029;-49
2022/02/26 09:22:27;;;;;;;23.95;9.45;;;;;;;14.63;49.05;103429.22;5037690;28;20044;-49
2022/02/26 09:24:52;;;;;;;21.40;9.75;;;;;;;13.92;49.72;103420.53;5054836;28;20035;-47
2022/02/26 09:27:18;;;;;;;28.73;10.02;;;;;;;13.93;49.51;103433.94;5045413;28;20025;-49
2022/02/26 09:29:43;;;;;;;23.48;9.10;;;;;;;14.39;49.53;103437.78;5034726;28;20029;-49
2022/02/26 09:32:08;;;;;;;19.08;8.52;;;;;;;14.92;46.79;103433.72;5041155;28;20033;-48
2022/02/26 09:34:34;;;;;;;27.50;8.85;;;;;;;14.24;47.11;103437.38;5054554;28;20025;-51
2022/02/26 09:37:00;;;;;;;25.20;9.45;;;;;;;13.01;50.54;103444.03;5052596;28;20468;-49
2022/02/26 09:39:25;;;;;;;19.35;9.07;;;;;;;13.31;49.07;103443.19;5049643;28;20088;-49
2022/02/26 09:41:51;;;;;;;21.65;8.93;;;;;;;12.23;51.30;103447.03;5036772;28;20057;-51
2022/02/26 09:44:19;;;;;;;25.00;8.75;;;;;;;13.26;49.53;103440.88;5033803;28;20044;-51
2022/02/26 09:46:44;;;;;;;19.63;7.50;;;;;;;13.02;48.45;103445.72;5039422;28;20495;-50
2022/02/26 09:49:10;;;;;;;18.83;6.95;;;;;;;13.61;47.60;103445.84;5054092;28;20029;-51
2022/02/26 09:51:39;;;;;;;19.50;6.25;;;;;;;13.58;47.11;103431.72;5052436;28;20026;-51
2022/02/26 09:54:04;;;;;;;21.35;6.60;;;;;;;13.90;46.34;103436.06;5054070;28;20108;-51
2022/02/26 09:56:29;;;;;;;17.67;6.50;;;;;;;12.83;48.41;103441.91;5037162;28;20436;-51
2022/02/26 09:58:55;;;;;;;18.88;7.93;;;;;;;13.35;48.11;103452.75;5050336;28;20503;-50
2022/02/26 10:01:20;;;;;;;21.95;8.15;;;;;;;13.62;49.13;103454.81;5054071;28;20432;-48
2022/02/26 10:03:45;;;;;;;21.92;8.07;;;;;;;13.69;48.21;103456.00;5052110;28;20029;-48
2022/02/26 10:06:17;;;;;;;19.67;7.43;;;;;;;13.57;47.32;103447.09;5053248;28;20037;-48
2022/02/26 10:08:48;;;;;;;24.05;7.80;;;;;;;13.01;48.70;103444.88;5051641;28;20021;-50
2022/02/26 10:11:31;;;;;;;27.55;6.85;;;;;;;13.22;47.70;103452.94;5042517;28;20440;-48
2022/02/26 10:13:58;;;;;;;22.58;6.65;;;;;;;12.60;48.47;103459.25;5037267;28;20110;-48
2022/02/26 10:16:47;;;;;;;20.52;6.65;;;;;;;10.97;52.28;103459.06;5050947;28;20024;-50
2022/02/26 10:19:23;;;;;;;19.75;6.57;;;;;;;11.08;53.48;103450.97;5035111;28;20048;-51
2022/02/26 10:21:49;;;;;;;18.70;6.50;;;;;;;11.53;51.06;103456.41;5037148;28;20021;-49
2022/02/26 10:24:15;;;;;;;19.50;5.82;;;;;;;11.02;51.48;103459.56;5049625;28;20025;-50
2022/02/26 10:26:47;;;;;;;16.52;6.00;;;;;;;10.52;52.60;103448.19;5033681;28;20025;-50
2022/02/26 10:29:15;;;;;;;17.98;6.20;;;;;;;9.79;55.71;103443.78;5036344;28;20104;-50
2022/02/26 10:31:59;;;;;;;23.30;5.82;;;;;;;10.01;55.93;103445.75;5053728;28;20050;-50
2022/02/26 10:34:33;;;;;;;25.55;6.18;;;;;;;10.99;52.77;103446.34;5049211;28;20481;-48
2022/02/26 10:37:09;;;;;;;16.75;5.43;;;;;;;10.74;53.31;103447.38;5037160;28;20032;-47
2022/02/26 10:39:36;;;;;;;19.27;5.60;;;;;;;10.70;53.88;103448.63;5033502;28;20389;-49
2022/02/26 10:42:02;;;;;;;25.77;5.35;;;;;;;10.31;53.38;103448.00;5034018;28;20029;-48
2022/02/26 10:44:28;;;;;;;17.77;5.50;;;;;;;10.48;54.29;103450.28;5031894;28;20397;-48
2022/02/26 10:47:05;;;;;;;16.85;4.78;;;;;;;10.45;53.03;103460.41;5033907;28;20037;-50
2022/02/26 10:49:30;;;;;;;19.92;4.38;;;;;;;10.64;52.80;103447.25;5038536;28;20033;-51
2022/02/26 10:51:56;;;;;;;15.23;2.92;;;;;;;10.62;51.88;103443.81;5053062;28;20104;-49
2022/02/26 10:54:23;;;;;;;18.98;3.78;;;;;;;11.16;51.69;103448.56;5052116;28;20036;-51
2022/02/26 10:56:49;;;;;;;20.65;4.47;;;;;;;10.48;52.07;103454.81;5052374;28;20443;-48
2022/02/26 10:59:28;;;;;;;24.95;4.75;;;;;;;9.92;52.95;103449.13;5038373;28;20025;-48
2022/02/26 11:02:12;;;;;;;19.25;4.35;;;;;;;10.38;52.46;103443.03;5051021;28;20052;-51
2022/02/26 11:04:38;;;;;;;15.27;3.53;;;;;;;10.24;52.24;103447.59;5047281;28;20463;-48
2022/02/26 11:07:04;;;;;;;12.88;3.85;;;;;;;10.67;51.29;103440.78;5045207;28;20104;-47
2022/02/26 11:09:30;;;;;;;18.67;4.35;;;;;;;10.52;51.84;103437.41;5044438;28;20041;-47
2022/02/26 11:11:57;;;;;;;13.82;3.60;;;;;;;10.83;49.74;103437.75;5034646;28;20480;-48
2022/02/26 11:14:25;;;;;;;19.93;4.17;;;;;;;10.81;49.18;103437.00;5033675;28;20039;-50
2022/02/26 11:16:53;;;;;;;15.32;3.38;;;;;;;10.19;50.66;103438.13;5041629;28;20057;-49
2022/02/26 11:19:20;;;;;;;20.50;3.58;;;;;;;10.49;49.63;103437.66;5037822;28;20020;-50